createdAt,value
2016-12-06T00:00:10.503Z,1015.52
2016-12-06T00:01:10.513Z,1015.55
2016-12-06T00:02:10.522Z,1015.56
2016-12-06T00:03:10.531Z,1015.56
2016-12-06T00:04:10.542Z,1015.59
2016-12-06T00:05:10.561Z,1015.58
2016-12-06T00:06:10.567Z,1015.52
2016-12-06T00:07:10.573Z,1015.47
2016-12-06T00:08:10.577Z,1015.49
2016-12-06T00:09:10.586Z,1015.52
2016-12-06T00:10:10.646Z,1015.56
2016-12-06T00:11:10.605Z,1015.57
2016-12-06T00:12:10.614Z,1015.6
2016-12-06T00:13:10.624Z,1015.6
2016-12-06T00:14:10.635Z,1015.63
2016-12-06T00:15:10.642Z,1015.61
2016-12-06T00:16:10.651Z,1015.61
2016-12-06T00:17:10.669Z,1015.58
2016-12-06T00:18:10.680Z,1015.6
2016-12-06T00:19:10.690Z,1015.59
2016-12-06T00:20:10.745Z,1015.54
2016-12-06T00:21:10.701Z,1015.53
2016-12-06T00:22:10.706Z,1015.56
2016-12-06T00:23:10.716Z,1015.53
2016-12-06T00:24:10.724Z,1015.57
2016-12-06T00:25:10.733Z,1015.56
2016-12-06T00:26:10.743Z,1015.56
2016-12-06T00:27:10.752Z,1015.59
2016-12-06T00:28:10.764Z,1015.6
2016-12-06T00:29:10.770Z,1015.54
2016-12-06T00:30:10.830Z,1015.54
2016-12-06T00:31:10.789Z,1015.47
2016-12-06T00:32:10.799Z,1015.42
2016-12-06T00:33:10.818Z,1015.48
2016-12-06T00:34:10.823Z,1015.47
2016-12-06T00:35:10.874Z,1015.48
2016-12-06T00:36:10.834Z,1015.48
2016-12-06T00:37:10.846Z,1015.44
2016-12-06T00:38:10.854Z,1015.44
2016-12-06T00:39:10.863Z,1015.45
2016-12-06T00:40:10.872Z,1015.48
2016-12-06T00:41:10.881Z,1015.53
2016-12-06T00:42:10.890Z,1015.54
2016-12-06T00:43:10.900Z,1015.57
2016-12-06T00:44:10.910Z,1015.54
2016-12-06T00:45:10.978Z,1015.55
2016-12-06T00:46:10.931Z,1015.55
2016-12-06T00:47:10.936Z,1015.56
2016-12-06T00:48:10.945Z,1015.58
2016-12-06T00:49:10.954Z,1015.54
2016-12-06T00:50:10.962Z,1015.6
2016-12-06T00:51:10.973Z,1015.55
2016-12-06T00:52:10.981Z,1015.54
2016-12-06T00:53:10.990Z,1015.56
2016-12-06T00:54:11.010Z,1015.6
2016-12-06T00:55:11.067Z,1015.55
2016-12-06T00:56:11.024Z,1015.6
2016-12-06T00:57:11.029Z,1015.61
2016-12-06T00:58:11.037Z,1015.63
2016-12-06T00:59:11.049Z,1015.72
2016-12-06T01:00:11.055Z,1015.69
2016-12-06T01:01:11.064Z,1015.64
2016-12-06T01:02:11.073Z,1015.67
2016-12-06T01:03:11.082Z,1015.63
2016-12-06T01:04:11.091Z,1015.6
2016-12-06T01:05:11.151Z,1015.58
2016-12-06T01:06:11.110Z,1015.64
2016-12-06T01:07:11.126Z,1015.59
2016-12-06T01:08:11.128Z,1015.63
2016-12-06T01:09:11.136Z,1015.64
2016-12-06T01:10:11.146Z,1015.61
2016-12-06T01:11:11.156Z,1015.66
2016-12-06T01:12:11.164Z,1015.65
2016-12-06T01:13:11.174Z,1015.61
2016-12-06T01:14:11.183Z,1015.58
2016-12-06T01:15:11.251Z,1015.6
2016-12-06T01:16:11.204Z,1015.55
2016-12-06T01:17:11.211Z,1015.54
2016-12-06T01:18:11.222Z,1015.56
2016-12-06T01:19:11.230Z,1015.65
2016-12-06T01:20:11.238Z,1015.6
2016-12-06T01:21:11.248Z,1015.59
2016-12-06T01:22:11.256Z,1015.56
2016-12-06T01:23:11.265Z,1015.59
2016-12-06T01:24:11.285Z,1015.59
2016-12-06T01:25:11.342Z,1015.62
2016-12-06T01:26:11.297Z,1015.63
2016-12-06T01:27:11.301Z,1015.64
2016-12-06T01:28:11.311Z,1015.65
2016-12-06T01:29:11.320Z,1015.67
2016-12-06T01:30:11.328Z,1015.71
2016-12-06T01:31:11.338Z,1015.74
2016-12-06T01:32:11.349Z,1015.77
2016-12-06T01:33:11.356Z,1015.74
2016-12-06T01:34:11.365Z,1015.76
2016-12-06T01:35:11.428Z,1015.71
2016-12-06T01:36:11.395Z,1015.71
2016-12-06T01:37:11.397Z,1015.65
2016-12-06T01:38:11.401Z,1015.71
2016-12-06T01:39:11.411Z,1015.71
2016-12-06T01:40:11.421Z,1015.76
2016-12-06T01:41:11.428Z,1015.74
2016-12-06T01:42:11.438Z,1015.73
2016-12-06T01:43:11.446Z,1015.76
2016-12-06T01:44:11.455Z,1015.72
2016-12-06T01:45:11.524Z,1015.72
2016-12-06T01:46:11.480Z,1015.72
2016-12-06T01:47:11.484Z,1015.66
2016-12-06T01:48:11.492Z,1015.66
2016-12-06T01:49:11.501Z,1015.65
2016-12-06T01:50:11.508Z,1015.66
2016-12-06T01:51:11.518Z,1015.69
2016-12-06T01:52:11.527Z,1015.71
2016-12-06T01:53:11.536Z,1015.7
2016-12-06T01:54:11.556Z,1015.79
2016-12-06T01:55:11.611Z,1015.77
2016-12-06T01:56:11.563Z,1015.84
2016-12-06T01:57:11.572Z,1015.82
2016-12-06T01:58:11.581Z,1015.82
2016-12-06T01:59:11.590Z,1015.79
2016-12-06T02:00:11.599Z,1015.77
2016-12-06T02:01:11.608Z,1015.78
2016-12-06T02:02:11.619Z,1015.78
2016-12-06T02:03:11.626Z,1015.79
2016-12-06T02:04:11.645Z,1015.82
2016-12-06T02:05:11.704Z,1015.8
2016-12-06T02:06:11.656Z,1015.81
2016-12-06T02:07:11.663Z,1015.83
2016-12-06T02:08:11.671Z,1015.83
2016-12-06T02:09:11.682Z,1015.83
2016-12-06T02:10:11.690Z,1015.84
2016-12-06T02:11:11.699Z,1015.91
2016-12-06T02:12:11.708Z,1015.88
2016-12-06T02:13:11.717Z,1015.85
2016-12-06T02:14:11.727Z,1015.88
2016-12-06T02:15:11.797Z,1015.89
2016-12-06T02:16:11.752Z,1015.92
2016-12-06T02:17:11.752Z,1015.9
2016-12-06T02:18:11.763Z,1015.88
2016-12-06T02:19:11.772Z,1015.85
2016-12-06T02:20:11.781Z,1015.84
2016-12-06T02:21:11.789Z,1015.79
2016-12-06T02:22:11.799Z,1015.78
2016-12-06T02:23:11.810Z,1015.74
2016-12-06T02:24:11.816Z,1015.74
2016-12-06T02:25:11.876Z,1015.77
2016-12-06T02:26:11.845Z,1015.78
2016-12-06T02:27:11.850Z,1015.74
2016-12-06T02:28:11.854Z,1015.77
2016-12-06T02:29:11.861Z,1015.8
2016-12-06T02:30:11.871Z,1015.86
2016-12-06T02:31:11.880Z,1015.83
2016-12-06T02:32:11.889Z,1015.86
2016-12-06T02:33:11.899Z,1015.96
2016-12-06T02:34:11.906Z,1015.93
2016-12-06T02:35:11.966Z,1015.97
2016-12-06T02:36:11.924Z,1016
2016-12-06T02:37:11.946Z,1015.99
2016-12-06T02:38:11.951Z,1016
2016-12-06T02:39:11.954Z,1016
2016-12-06T02:40:11.961Z,1016.03
2016-12-06T02:41:11.970Z,1016.08
2016-12-06T02:42:11.979Z,1016.07
2016-12-06T02:43:11.987Z,1016.1
2016-12-06T02:44:11.997Z,1016.13
2016-12-06T02:45:12.056Z,1016.12
2016-12-06T02:46:12.016Z,1016.14
2016-12-06T02:47:12.025Z,1016.08
2016-12-06T02:48:12.034Z,1016.06
2016-12-06T02:49:12.044Z,1016.08
2016-12-06T02:50:12.052Z,1016.05
2016-12-06T02:51:12.062Z,1015.99
2016-12-06T02:52:12.078Z,1015.94
2016-12-06T02:53:12.085Z,1015.96
2016-12-06T02:54:12.088Z,1015.96
2016-12-06T02:55:12.148Z,1015.98
2016-12-06T02:56:12.106Z,1016.02
2016-12-06T02:57:12.113Z,1016.04
2016-12-06T02:58:12.123Z,1016.06
2016-12-06T02:59:12.133Z,1016.17
2016-12-06T03:00:12.144Z,1016.23
2016-12-06T03:01:12.160Z,1016.29
2016-12-06T03:02:12.168Z,1016.3
2016-12-06T03:03:12.175Z,1016.31
2016-12-06T03:04:12.179Z,1016.37
2016-12-06T03:05:12.237Z,1016.36
2016-12-06T03:06:12.196Z,1016.39
2016-12-06T03:07:12.205Z,1016.38
2016-12-06T03:08:12.212Z,1016.38
2016-12-06T03:09:12.224Z,1016.35
2016-12-06T03:10:12.232Z,1016.38
2016-12-06T03:11:12.242Z,1016.36
2016-12-06T03:12:12.258Z,1016.37
2016-12-06T03:13:12.262Z,1016.34
2016-12-06T03:14:12.270Z,1016.34
2016-12-06T03:15:12.328Z,1016.3
2016-12-06T03:16:12.286Z,1016.27
2016-12-06T03:17:12.294Z,1016.28
2016-12-06T03:18:12.303Z,1016.31
2016-12-06T03:19:12.312Z,1016.32
2016-12-06T03:20:12.321Z,1016.34
2016-12-06T03:21:12.331Z,1016.38
2016-12-06T03:22:12.347Z,1016.33
2016-12-06T03:23:12.355Z,1016.36
2016-12-06T03:24:12.356Z,1016.34
2016-12-06T03:25:12.417Z,1016.33
2016-12-06T03:26:12.376Z,1016.34
2016-12-06T03:27:12.384Z,1016.3
2016-12-06T03:28:12.393Z,1016.28
2016-12-06T03:29:12.403Z,1016.35
2016-12-06T03:30:12.411Z,1016.31
2016-12-06T03:31:12.421Z,1016.32
2016-12-06T03:32:12.429Z,1016.38
2016-12-06T03:33:12.446Z,1016.4
2016-12-06T03:34:12.453Z,1016.39
2016-12-06T03:35:12.455Z,1016.39
2016-12-06T03:36:12.464Z,1016.36
2016-12-06T03:37:12.474Z,1016.36
2016-12-06T03:38:12.481Z,1016.33
2016-12-06T03:39:12.491Z,1016.27
2016-12-06T03:40:12.550Z,1016.3
2016-12-06T03:41:12.510Z,1016.3
2016-12-06T03:42:12.518Z,1016.28
2016-12-06T03:43:12.531Z,1016.33
2016-12-06T03:44:12.540Z,1016.36
2016-12-06T03:45:12.553Z,1016.38
2016-12-06T03:46:12.560Z,1016.37
2016-12-06T03:47:12.563Z,1016.37
2016-12-06T03:48:12.572Z,1016.41
2016-12-06T03:49:12.580Z,1016.44
2016-12-06T03:50:12.639Z,1016.41
2016-12-06T03:51:12.597Z,1016.41
2016-12-06T03:52:12.606Z,1016.41
2016-12-06T03:53:12.616Z,1016.44
2016-12-06T03:54:12.624Z,1016.39
2016-12-06T03:55:12.642Z,1016.37
2016-12-06T03:56:12.651Z,1016.34
2016-12-06T03:57:12.655Z,1016.35
2016-12-06T03:58:12.660Z,1016.37
2016-12-06T03:59:12.672Z,1016.43
2016-12-06T04:00:12.727Z,1016.43
2016-12-06T04:01:12.686Z,1016.47
2016-12-06T04:02:12.697Z,1016.48
2016-12-06T04:03:12.703Z,1016.46
2016-12-06T04:04:12.713Z,1016.44
2016-12-06T04:05:12.721Z,1016.43
2016-12-06T04:06:12.731Z,1016.41
2016-12-06T04:07:12.754Z,1016.36
2016-12-06T04:08:12.755Z,1016.41
2016-12-06T04:09:12.763Z,1016.44
2016-12-06T04:10:12.820Z,1016.42
2016-12-06T04:11:12.774Z,1016.42
2016-12-06T04:12:12.782Z,1016.43
2016-12-06T04:13:12.791Z,1016.44
2016-12-06T04:14:12.801Z,1016.41
2016-12-06T04:15:12.809Z,1016.43
2016-12-06T04:16:12.818Z,1016.43
2016-12-06T04:17:12.828Z,1016.52
2016-12-06T04:18:12.840Z,1016.56
2016-12-06T04:19:12.853Z,1016.57
2016-12-06T04:20:12.915Z,1016.58
2016-12-06T04:21:12.868Z,1016.6
2016-12-06T04:22:12.871Z,1016.61
2016-12-06T04:23:12.881Z,1016.63
2016-12-06T04:24:12.892Z,1016.66
2016-12-06T04:25:12.898Z,1016.64
2016-12-06T04:26:12.908Z,1016.67
2016-12-06T04:27:12.917Z,1016.71
2016-12-06T04:28:12.925Z,1016.73
2016-12-06T04:29:12.936Z,1016.75
2016-12-06T04:30:12.994Z,1016.73
2016-12-06T04:31:12.952Z,1016.7
2016-12-06T04:32:12.969Z,1016.79
2016-12-06T04:33:12.974Z,1016.74
2016-12-06T04:34:12.978Z,1016.73
2016-12-06T04:35:12.988Z,1016.71
2016-12-06T04:36:12.996Z,1016.73
2016-12-06T04:37:13.004Z,1016.75
2016-12-06T04:38:13.013Z,1016.76
2016-12-06T04:39:13.025Z,1016.81
2016-12-06T04:40:13.093Z,1016.78
2016-12-06T04:41:13.051Z,1016.83
2016-12-06T04:42:13.056Z,1016.8
2016-12-06T04:43:13.058Z,1016.85
2016-12-06T04:44:13.066Z,1016.91
2016-12-06T04:45:13.074Z,1016.93
2016-12-06T04:46:13.083Z,1016.96
2016-12-06T04:47:13.093Z,1016.98
2016-12-06T04:48:13.102Z,1016.92
2016-12-06T04:49:13.110Z,1016.91
2016-12-06T04:50:13.169Z,1016.86
2016-12-06T04:51:13.128Z,1016.83
2016-12-06T04:52:13.147Z,1016.83
2016-12-06T04:53:13.155Z,1016.83
2016-12-06T04:54:13.159Z,1016.81
2016-12-06T04:55:13.163Z,1016.79
2016-12-06T04:56:13.171Z,1016.71
2016-12-06T04:57:13.181Z,1016.71
2016-12-06T04:58:13.192Z,1016.73
2016-12-06T04:59:13.199Z,1016.79
2016-12-06T05:00:13.257Z,1016.8
2016-12-06T05:01:13.217Z,1016.75
2016-12-06T05:02:13.224Z,1016.79
2016-12-06T05:03:13.233Z,1016.83
2016-12-06T05:04:13.243Z,1016.85
2016-12-06T05:05:13.250Z,1016.83
2016-12-06T05:06:13.269Z,1016.87
2016-12-06T05:07:13.275Z,1016.91
2016-12-06T05:08:13.279Z,1016.9
2016-12-06T05:09:13.286Z,1016.88
2016-12-06T05:10:13.346Z,1016.86
2016-12-06T05:11:13.305Z,1016.85
2016-12-06T05:12:13.314Z,1016.8
2016-12-06T05:13:13.321Z,1016.83
2016-12-06T05:14:13.331Z,1016.78
2016-12-06T05:15:13.340Z,1016.79
2016-12-06T05:16:13.348Z,1016.8
2016-12-06T05:17:13.357Z,1016.84
2016-12-06T05:18:13.367Z,1016.87
2016-12-06T05:19:13.375Z,1016.89
2016-12-06T05:20:13.434Z,1016.88
2016-12-06T05:21:13.392Z,1016.91
2016-12-06T05:22:13.403Z,1016.87
2016-12-06T05:23:13.410Z,1016.9
2016-12-06T05:24:13.419Z,1016.93
2016-12-06T05:25:13.428Z,1016.95
2016-12-06T05:26:13.436Z,1016.91
2016-12-06T05:27:13.445Z,1016.92
2016-12-06T05:28:13.455Z,1016.89
2016-12-06T05:29:13.462Z,1016.88
2016-12-06T05:30:13.526Z,1016.88
2016-12-06T05:31:13.491Z,1016.89
2016-12-06T05:32:13.499Z,1016.9
2016-12-06T05:33:13.501Z,1016.91
2016-12-06T05:34:13.510Z,1017.02
2016-12-06T05:35:13.520Z,1017.02
2016-12-06T05:36:13.525Z,1017.05
2016-12-06T05:37:13.534Z,1017.1
2016-12-06T05:38:13.543Z,1017.09
2016-12-06T05:39:13.551Z,1017.06
2016-12-06T05:40:13.610Z,1017.1
2016-12-06T05:41:13.569Z,1017.13
2016-12-06T05:42:13.579Z,1017.11
2016-12-06T05:43:13.595Z,1017.09
2016-12-06T05:44:13.600Z,1017.13
2016-12-06T05:45:13.606Z,1017.1
2016-12-06T05:46:13.614Z,1017.11
2016-12-06T05:47:13.622Z,1017.15
2016-12-06T05:48:13.632Z,1017.12
2016-12-06T05:49:13.640Z,1017.11
2016-12-06T05:50:13.700Z,1017.06
2016-12-06T05:51:13.660Z,1017.05
2016-12-06T05:52:13.668Z,1017.05
2016-12-06T05:53:13.675Z,1017.16
2016-12-06T05:54:13.687Z,1017.24
2016-12-06T05:55:13.697Z,1017.25
2016-12-06T05:56:13.712Z,1017.27
2016-12-06T05:57:13.716Z,1017.28
2016-12-06T05:58:13.721Z,1017.27
2016-12-06T05:59:13.731Z,1017.28
2016-12-06T06:00:13.789Z,1017.25
2016-12-06T06:01:13.748Z,1017.27
2016-12-06T06:02:13.757Z,1017.26
2016-12-06T06:03:13.766Z,1017.3
2016-12-06T06:04:13.774Z,1017.33
2016-12-06T06:05:13.784Z,1017.35
2016-12-06T06:06:13.801Z,1017.31
2016-12-06T06:07:13.805Z,1017.33
2016-12-06T06:08:13.810Z,1017.38
2016-12-06T06:09:13.819Z,1017.4
2016-12-06T06:10:13.879Z,1017.42
2016-12-06T06:11:13.836Z,1017.44
2016-12-06T06:12:13.846Z,1017.49
2016-12-06T06:13:13.853Z,1017.43
2016-12-06T06:14:13.864Z,1017.47
2016-12-06T06:15:13.934Z,1017.44
2016-12-06T06:16:13.881Z,1017.49
2016-12-06T06:17:13.889Z,1017.47
2016-12-06T06:18:13.897Z,1017.48
2016-12-06T06:19:13.906Z,1017.54
2016-12-06T06:20:13.919Z,1017.53
2016-12-06T06:21:13.924Z,1017.55
2016-12-06T06:22:13.933Z,1017.52
2016-12-06T06:23:13.943Z,1017.53
2016-12-06T06:24:13.951Z,1017.5
2016-12-06T06:25:13.961Z,1017.53
2016-12-06T06:26:13.969Z,1017.51
2016-12-06T06:27:13.976Z,1017.52
2016-12-06T06:28:13.988Z,1017.53
2016-12-06T06:29:14.003Z,1017.57
2016-12-06T06:30:14.004Z,1017.62
2016-12-06T06:31:14.013Z,1017.63
2016-12-06T06:32:14.027Z,1017.6
2016-12-06T06:33:14.030Z,1017.62
2016-12-06T06:34:14.041Z,1017.67
2016-12-06T06:35:14.048Z,1017.63
2016-12-06T06:36:14.059Z,1017.68
2016-12-06T06:37:14.079Z,1017.69
2016-12-06T06:38:14.075Z,1017.69
2016-12-06T06:39:14.083Z,1017.74
2016-12-06T06:40:14.093Z,1017.73
2016-12-06T06:41:14.102Z,1017.75
2016-12-06T06:42:14.111Z,1017.73
2016-12-06T06:43:14.119Z,1017.75
2016-12-06T06:44:14.131Z,1017.78
2016-12-06T06:45:14.137Z,1017.79
2016-12-06T06:46:14.145Z,1017.8
2016-12-06T06:47:14.154Z,1017.79
2016-12-06T06:48:14.163Z,1017.8
2016-12-06T06:49:14.171Z,1017.83
2016-12-06T06:50:14.181Z,1017.84
2016-12-06T06:51:14.190Z,1017.87
2016-12-06T06:52:14.200Z,1017.86
2016-12-06T06:53:14.219Z,1017.89
2016-12-06T06:54:14.222Z,1017.87
2016-12-06T06:55:14.226Z,1017.89
2016-12-06T06:56:14.235Z,1017.92
2016-12-06T06:57:14.243Z,1017.91
2016-12-06T06:58:14.252Z,1017.93
2016-12-06T06:59:14.262Z,1017.89
2016-12-06T07:00:14.271Z,1017.97
2016-12-06T07:01:14.279Z,1017.97
2016-12-06T07:02:14.289Z,1017.93
2016-12-06T07:03:14.298Z,1017.97
2016-12-06T07:04:14.307Z,1018.01
2016-12-06T07:05:14.315Z,1018.01
2016-12-06T07:06:14.324Z,1017.96
2016-12-06T07:07:14.332Z,1017.91
2016-12-06T07:08:14.342Z,1017.9
2016-12-06T07:09:14.351Z,1017.94
2016-12-06T07:10:14.360Z,1017.92
2016-12-06T07:11:14.369Z,1017.92
2016-12-06T07:12:14.385Z,1017.93
2016-12-06T07:13:14.391Z,1017.94
2016-12-06T07:14:14.394Z,1017.95
2016-12-06T07:15:14.403Z,1017.98
2016-12-06T07:16:14.413Z,1017.96
2016-12-06T07:17:14.422Z,1017.97
2016-12-06T07:18:14.433Z,1017.95
2016-12-06T07:19:14.440Z,1017.94
2016-12-06T07:20:14.451Z,1017.93
2016-12-06T07:21:14.467Z,1017.94
2016-12-06T07:22:14.473Z,1017.98
2016-12-06T07:23:14.476Z,1018.01
2016-12-06T07:24:14.485Z,1018.01
2016-12-06T07:25:14.493Z,1017.97
2016-12-06T07:26:14.503Z,1017.96
2016-12-06T07:27:14.512Z,1017.99
2016-12-06T07:28:14.521Z,1018.02
2016-12-06T07:29:14.538Z,1018.01
2016-12-06T07:30:14.544Z,1018.08
2016-12-06T07:31:14.548Z,1018.1
2016-12-06T07:32:14.557Z,1018.02
2016-12-06T07:33:14.568Z,1018.08
2016-12-06T07:34:14.575Z,1018.08
2016-12-06T07:35:14.584Z,1018.04
2016-12-06T07:36:14.593Z,1018.08
2016-12-06T07:37:14.603Z,1018.1
2016-12-06T07:38:14.624Z,1018.07
2016-12-06T07:39:14.629Z,1018.1
2016-12-06T07:40:14.635Z,1018.16
2016-12-06T07:41:14.639Z,1018.18
2016-12-06T07:42:14.648Z,1018.21
2016-12-06T07:43:14.656Z,1018.17
2016-12-06T07:44:14.664Z,1018.21
2016-12-06T07:45:14.674Z,1018.24
2016-12-06T07:46:14.686Z,1018.25
2016-12-06T07:47:14.691Z,1018.28
2016-12-06T07:48:14.701Z,1018.25
2016-12-06T07:49:14.719Z,1018.27
2016-12-06T07:50:14.726Z,1018.29
2016-12-06T07:51:14.729Z,1018.29
2016-12-06T07:52:14.738Z,1018.33
2016-12-06T07:53:14.746Z,1018.34
2016-12-06T07:54:14.754Z,1018.38
2016-12-06T07:55:14.765Z,1018.4
2016-12-06T07:56:14.774Z,1018.4
2016-12-06T07:57:14.783Z,1018.44
2016-12-06T07:58:14.790Z,1018.44
2016-12-06T07:59:14.810Z,1018.41
2016-12-06T08:00:14.817Z,1018.41
2016-12-06T08:01:14.823Z,1018.41
2016-12-06T08:02:14.829Z,1018.39
2016-12-06T08:03:14.838Z,1018.39
2016-12-06T08:04:14.844Z,1018.41
2016-12-06T08:05:14.855Z,1018.42
2016-12-06T08:06:14.864Z,1018.41
2016-12-06T08:07:14.873Z,1018.44
2016-12-06T08:08:14.881Z,1018.42
2016-12-06T08:09:14.891Z,1018.43
2016-12-06T08:10:14.910Z,1018.45
2016-12-06T08:11:14.914Z,1018.47
2016-12-06T08:12:14.917Z,1018.53
2016-12-06T08:13:14.928Z,1018.52
2016-12-06T08:14:14.936Z,1018.44
2016-12-06T08:15:14.944Z,1018.45
2016-12-06T08:16:14.955Z,1018.44
2016-12-06T08:17:14.963Z,1018.46
2016-12-06T08:18:14.974Z,1018.47
2016-12-06T08:19:14.992Z,1018.44
2016-12-06T08:20:14.997Z,1018.46
2016-12-06T08:21:15.000Z,1018.41
2016-12-06T08:22:15.009Z,1018.46
2016-12-06T08:23:15.019Z,1018.43
2016-12-06T08:24:15.027Z,1018.47
2016-12-06T08:25:15.036Z,1018.48
2016-12-06T08:26:15.045Z,1018.49
2016-12-06T08:27:15.054Z,1018.49
2016-12-06T08:28:15.064Z,1018.49
2016-12-06T08:29:15.073Z,1018.49
2016-12-06T08:30:15.093Z,1018.49
2016-12-06T08:31:15.097Z,1018.46
2016-12-06T08:32:15.102Z,1018.51
2016-12-06T08:33:15.110Z,1018.5
2016-12-06T08:34:15.119Z,1018.55
2016-12-06T08:35:15.128Z,1018.58
2016-12-06T08:36:15.139Z,1018.6
2016-12-06T08:37:15.144Z,1018.6
2016-12-06T08:38:15.154Z,1018.62
2016-12-06T08:39:15.177Z,1018.62
2016-12-06T08:40:15.181Z,1018.64
2016-12-06T08:41:15.183Z,1018.66
2016-12-06T08:42:15.191Z,1018.69
2016-12-06T08:43:15.200Z,1018.68
2016-12-06T08:44:15.211Z,1018.7
2016-12-06T08:45:15.218Z,1018.68
2016-12-06T08:46:15.229Z,1018.75
2016-12-06T08:47:15.238Z,1018.74
2016-12-06T08:48:15.257Z,1018.8
2016-12-06T08:49:15.261Z,1018.81
2016-12-06T08:50:15.268Z,1018.82
2016-12-06T08:51:15.274Z,1018.84
2016-12-06T08:52:15.284Z,1018.84
2016-12-06T08:53:15.291Z,1018.86
2016-12-06T08:54:15.307Z,1018.83
2016-12-06T08:55:15.313Z,1018.83
2016-12-06T08:56:15.321Z,1018.87
2016-12-06T08:57:15.329Z,1018.89
2016-12-06T08:58:15.348Z,1018.88
2016-12-06T08:59:15.354Z,1018.88
2016-12-06T09:00:15.359Z,1018.88
2016-12-06T09:01:15.367Z,1018.87
2016-12-06T09:02:15.376Z,1018.9
2016-12-06T09:03:15.386Z,1018.9
2016-12-06T09:04:15.395Z,1018.9
2016-12-06T09:05:15.403Z,1018.93
2016-12-06T09:06:15.414Z,1018.94
2016-12-06T09:07:15.424Z,1018.96
2016-12-06T09:08:15.433Z,1018.95
2016-12-06T09:09:15.442Z,1018.94
2016-12-06T09:10:15.450Z,1018.9
2016-12-06T09:11:15.460Z,1018.91
2016-12-06T09:12:15.471Z,1018.92
2016-12-06T09:13:15.482Z,1018.96
2016-12-06T09:14:15.490Z,1018.97
2016-12-06T09:15:15.498Z,1018.98
2016-12-06T09:16:15.510Z,1019.04
2016-12-06T09:17:15.542Z,1019
2016-12-06T09:18:15.526Z,1019.04
2016-12-06T09:19:15.537Z,1019.03
2016-12-06T09:20:15.552Z,1018.99
2016-12-06T09:21:15.553Z,1019
2016-12-06T09:22:15.572Z,1018.98
2016-12-06T09:23:15.572Z,1018.99
2016-12-06T09:24:15.582Z,1018.98
2016-12-06T09:25:15.592Z,1018.97
2016-12-06T09:26:15.609Z,1018.99
2016-12-06T09:27:15.609Z,1018.94
2016-12-06T09:28:15.621Z,1018.99
2016-12-06T09:29:15.639Z,1019.02
2016-12-06T09:30:15.640Z,1019.02
2016-12-06T09:31:15.648Z,1019.02
2016-12-06T09:32:15.656Z,1019
2016-12-06T09:33:15.666Z,1019.01
2016-12-06T09:34:15.757Z,1019.01
2016-12-06T09:35:15.687Z,1019.05
2016-12-06T09:36:15.695Z,1019.07
2016-12-06T09:37:15.787Z,1019.05
2016-12-06T09:38:15.714Z,1019.04
2016-12-06T09:39:15.723Z,1019.04
2016-12-06T09:40:15.732Z,1019.05
2016-12-06T09:41:15.742Z,1019.04
2016-12-06T09:42:15.750Z,1018.97
2016-12-06T09:43:15.762Z,1018.98
2016-12-06T09:44:15.779Z,1018.93
2016-12-06T09:45:15.782Z,1018.94
2016-12-06T09:46:15.789Z,1018.99
2016-12-06T09:47:15.798Z,1018.96
2016-12-06T09:48:15.809Z,1019.02
2016-12-06T09:49:15.818Z,1019.03
2016-12-06T09:50:15.827Z,1019.01
2016-12-06T09:51:15.836Z,1019.05
2016-12-06T09:52:15.845Z,1018.99
2016-12-06T09:53:15.860Z,1019.02
2016-12-06T09:54:15.864Z,1019.03
2016-12-06T09:55:15.878Z,1019
2016-12-06T09:56:15.882Z,1019.02
2016-12-06T09:57:15.903Z,1019.06
2016-12-06T09:58:15.903Z,1019.09
2016-12-06T09:59:15.910Z,1019.13
2016-12-06T10:00:15.923Z,1019.15
2016-12-06T10:01:15.930Z,1019.15
2016-12-06T10:02:15.948Z,1019.18
2016-12-06T10:03:15.950Z,1019.22
2016-12-06T10:04:15.959Z,1019.24
2016-12-06T10:05:15.969Z,1019.26
2016-12-06T10:06:15.977Z,1019.26
2016-12-06T10:07:15.988Z,1019.25
2016-12-06T10:08:15.998Z,1019.25
2016-12-06T10:09:16.006Z,1019.22
2016-12-06T10:10:16.136Z,1019.19
2016-12-06T10:11:16.118Z,1019.19
2016-12-06T10:12:16.035Z,1019.19
2016-12-06T10:13:16.045Z,1019.2
2016-12-06T10:14:16.053Z,1019.2
2016-12-06T10:15:16.064Z,1019.22
2016-12-06T10:16:16.074Z,1019.2
2016-12-06T10:17:16.089Z,1019.22
2016-12-06T10:18:16.092Z,1019.18
2016-12-06T10:19:16.106Z,1019.22
2016-12-06T10:20:16.111Z,1019.17
2016-12-06T10:21:16.123Z,1019.23
2016-12-06T10:22:16.141Z,1019.23
2016-12-06T10:23:16.139Z,1019.27
2016-12-06T10:24:16.149Z,1019.22
2016-12-06T10:25:16.162Z,1019.23
2016-12-06T10:26:16.169Z,1019.27
2016-12-06T10:27:16.191Z,1019.19
2016-12-06T10:28:16.187Z,1019.2
2016-12-06T10:29:16.197Z,1019.2
2016-12-06T10:30:16.210Z,1019.2
2016-12-06T10:31:16.218Z,1019.26
2016-12-06T10:32:16.233Z,1019.25
2016-12-06T10:33:16.237Z,1019.26
2016-12-06T10:34:16.244Z,1019.28
2016-12-06T10:35:16.257Z,1019.28
2016-12-06T10:36:16.264Z,1019.3
2016-12-06T10:37:16.286Z,1019.29
2016-12-06T10:38:16.283Z,1019.27
2016-12-06T10:39:16.351Z,1019.36
2016-12-06T10:40:16.368Z,1019.35
2016-12-06T10:41:16.384Z,1019.4
2016-12-06T10:42:16.566Z,1019.42
2016-12-06T10:43:16.332Z,1019.41
2016-12-06T10:44:16.344Z,1019.42
2016-12-06T10:45:16.353Z,1019.39
2016-12-06T10:46:16.369Z,1019.39
2016-12-06T10:47:16.373Z,1019.37
2016-12-06T10:48:16.385Z,1019.41
2016-12-06T10:49:16.396Z,1019.47
2016-12-06T10:50:16.405Z,1019.43
2016-12-06T10:51:16.411Z,1019.39
2016-12-06T10:52:16.421Z,1019.36
2016-12-06T10:53:16.431Z,1019.34
2016-12-06T10:54:16.440Z,1019.3
2016-12-06T10:55:16.450Z,1019.32
2016-12-06T10:56:16.460Z,1019.3
2016-12-06T10:57:16.469Z,1019.26
2016-12-06T10:58:16.480Z,1019.32
2016-12-06T10:59:16.491Z,1019.23
2016-12-06T11:00:16.499Z,1019.23
2016-12-06T11:01:16.510Z,1019.17
2016-12-06T11:02:16.520Z,1019.14
2016-12-06T11:03:16.530Z,1019.19
2016-12-06T11:04:16.539Z,1019.21
2016-12-06T11:05:16.550Z,1019.28
2016-12-06T11:06:16.560Z,1019.28
2016-12-06T11:07:16.776Z,1019.31
2016-12-06T11:09:16.591Z,1019.31
2016-12-06T11:10:16.601Z,1019.3
2016-12-06T11:11:16.611Z,1019.3
2016-12-06T11:12:16.622Z,1019.32
2016-12-06T11:13:16.631Z,1019.27
2016-12-06T11:14:16.641Z,1019.25
2016-12-06T11:15:16.652Z,1019.27
2016-12-06T11:16:16.661Z,1019.23
2016-12-06T11:17:16.672Z,1019.24
2016-12-06T11:18:16.682Z,1019.22
2016-12-06T11:19:16.693Z,1019.24
2016-12-06T11:20:16.702Z,1019.24
2016-12-06T11:21:16.712Z,1019.25
2016-12-06T11:22:16.722Z,1019.23
2016-12-06T11:23:16.732Z,1019.22
2016-12-06T11:24:16.743Z,1019.19
2016-12-06T11:25:16.752Z,1019.19
2016-12-06T11:26:16.763Z,1019.19
2016-12-06T11:27:16.773Z,1019.11
2016-12-06T11:28:16.784Z,1019.18
2016-12-06T11:29:16.794Z,1019.18
2016-12-06T11:30:16.803Z,1019.11
2016-12-06T11:31:16.814Z,1019.14
2016-12-06T11:32:16.825Z,1019.14
2016-12-06T11:33:16.834Z,1019.21
2016-12-06T11:34:16.847Z,1019.17
2016-12-06T11:35:16.855Z,1019.22
2016-12-06T11:36:16.866Z,1019.22
2016-12-06T11:37:16.876Z,1019.22
2016-12-06T11:38:16.888Z,1019.18
2016-12-06T11:39:16.898Z,1019.23
2016-12-06T11:40:16.907Z,1019.19
2016-12-06T11:41:16.917Z,1019.14
2016-12-06T11:42:16.930Z,1019.16
2016-12-06T11:43:16.939Z,1019.16
2016-12-06T11:44:16.949Z,1019.19
2016-12-06T11:45:16.959Z,1019.21
2016-12-06T11:46:16.970Z,1019.26
2016-12-06T11:47:16.979Z,1019.23
2016-12-06T11:48:16.991Z,1019.24
2016-12-06T11:49:17.001Z,1019.26
2016-12-06T11:50:17.012Z,1019.26
2016-12-06T11:51:17.023Z,1019.25
2016-12-06T11:52:17.032Z,1019.26
2016-12-06T11:53:17.043Z,1019.27
2016-12-06T11:54:17.054Z,1019.33
2016-12-06T11:55:17.064Z,1019.28
2016-12-06T11:56:17.074Z,1019.3
2016-12-06T11:57:17.085Z,1019.27
2016-12-06T11:58:17.095Z,1019.29
2016-12-06T11:59:17.105Z,1019.25
2016-12-06T12:00:17.116Z,1019.22
2016-12-06T12:01:17.127Z,1019.16
2016-12-06T12:02:17.137Z,1019.17
2016-12-06T12:03:17.147Z,1019.18
2016-12-06T12:04:17.158Z,1019.13
2016-12-06T12:05:17.170Z,1019.18
2016-12-06T12:06:17.179Z,1019.16
2016-12-06T12:07:17.190Z,1019.19
2016-12-06T12:08:17.201Z,1019.21
2016-12-06T12:09:17.210Z,1019.2